sensor_id;sensor_type;location;lat;lon;timestamp;P1;durP1;ratioP1;P2;durP2;ratioP2
14342;SDS011;7255;53.596;9.960;2023-06-14T00:02:09;3.35;;;2.30;;
14342;SDS011;7255;53.596;9.960;2023-06-14T00:04:35;3.70;;;2.22;;
14342;SDS011;7255;53.596;9.960;2023-06-14T00:07:02;2.85;;;2.12;;
14342;SDS011;7255;53.596;9.960;2023-06-14T00:09:31;3.55;;;2.70;;
14342;SDS011;7255;53.596;9.960;2023-06-14T00:11:57;3.97;;;2.50;;
14342;SDS011;7255;53.596;9.960;2023-06-14T00:14:23;2.47;;;2.28;;
14342;SDS011;7255;53.596;9.960;2023-06-14T00:16:49;2.85;;;2.20;;
14342;SDS011;7255;53.596;9.960;2023-06-14T00:19:17;2.78;;;2.20;;
14342;SDS011;7255;53.596;9.960;2023-06-14T00:21:44;3.28;;;2.33;;
14342;SDS011;7255;53.596;9.960;2023-06-14T00:24:11;3.20;;;2.35;;
14342;SDS011;7255;53.596;9.960;2023-06-14T00:26:39;4.45;;;2.25;;
14342;SDS011;7255;53.596;9.960;2023-06-14T00:29:05;3.12;;;1.75;;
14342;SDS011;7255;53.596;9.960;2023-06-14T00:31:31;5.25;;;2.30;;
14342;SDS011;7255;53.596;9.960;2023-06-14T00:33:58;5.15;;;2.33;;
14342;SDS011;7255;53.596;9.960;2023-06-14T00:36:24;4.72;;;2.60;;
14342;SDS011;7255;53.596;9.960;2023-06-14T00:38:50;3.42;;;2.33;;
14342;SDS011;7255;53.596;9.960;2023-06-14T00:41:17;5.43;;;2.53;;
14342;SDS011;7255;53.596;9.960;2023-06-14T00:43:44;3.08;;;2.20;;
14342;SDS011;7255;53.596;9.960;2023-06-14T00:46:10;2.75;;;2.37;;
14342;SDS011;7255;53.596;9.960;2023-06-14T00:48:37;3.12;;;2.83;;
14342;SDS011;7255;53.596;9.960;2023-06-14T00:51:05;3.78;;;2.35;;
14342;SDS011;7255;53.596;9.960;2023-06-14T00:53:32;3.35;;;2.50;;
14342;SDS011;7255;53.596;9.960;2023-06-14T00:56:00;2.45;;;2.03;;
14342;SDS011;7255;53.596;9.960;2023-06-14T00:58:27;6.12;;;2.65;;
14342;SDS011;7255;53.596;9.960;2023-06-14T01:00:54;3.05;;;2.42;;
14342;SDS011;7255;53.596;9.960;2023-06-14T01:03:21;3.50;;;2.17;;
14342;SDS011;7255;53.596;9.960;2023-06-14T01:05:47;4.50;;;2.83;;
14342;SDS011;7255;53.596;9.960;2023-06-14T01:08:18;3.83;;;2.58;;
14342;SDS011;7255;53.596;9.960;2023-06-14T01:10:52;2.55;;;2.25;;
14342;SDS011;7255;53.596;9.960;2023-06-14T01:13:31;4.97;;;2.50;;
14342;SDS011;7255;53.596;9.960;2023-06-14T01:16:01;3.92;;;2.40;;
14342;SDS011;7255;53.596;9.960;2023-06-14T01:18:28;5.65;;;2.60;;
14342;SDS011;7255;53.596;9.960;2023-06-14T01:20:55;5.70;;;2.25;;
14342;SDS011;7255;53.596;9.960;2023-06-14T01:23:23;6.68;;;2.60;;
14342;SDS011;7255;53.596;9.960;2023-06-14T01:25:50;3.87;;;2.42;;
14342;SDS011;7255;53.596;9.960;2023-06-14T01:28:18;3.60;;;2.58;;
14342;SDS011;7255;53.596;9.960;2023-06-14T01:30:47;4.28;;;2.60;;
14342;SDS011;7255;53.596;9.960;2023-06-14T01:33:18;3.00;;;2.65;;
14342;SDS011;7255;53.596;9.960;2023-06-14T01:35:46;4.85;;;2.97;;
14342;SDS011;7255;53.596;9.960;2023-06-14T01:38:15;3.55;;;2.00;;
14342;SDS011;7255;53.596;9.960;2023-06-14T01:40:44;3.22;;;2.40;;
14342;SDS011;7255;53.596;9.960;2023-06-14T01:43:11;4.43;;;2.22;;
14342;SDS011;7255;53.596;9.960;2023-06-14T01:45:40;4.30;;;2.67;;
14342;SDS011;7255;53.596;9.960;2023-06-14T01:48:07;2.85;;;2.30;;
14342;SDS011;7255;53.596;9.960;2023-06-14T01:50:34;4.37;;;2.17;;
14342;SDS011;7255;53.596;9.960;2023-06-14T01:53:00;4.07;;;2.62;;
14342;SDS011;7255;53.596;9.960;2023-06-14T01:55:27;3.33;;;2.53;;
14342;SDS011;7255;53.596;9.960;2023-06-14T01:57:54;3.40;;;2.65;;
14342;SDS011;7255;53.596;9.960;2023-06-14T02:00:21;6.10;;;2.40;;
14342;SDS011;7255;53.596;9.960;2023-06-14T02:02:47;3.60;;;2.60;;
14342;SDS011;7255;53.596;9.960;2023-06-14T02:05:14;4.85;;;3.08;;
14342;SDS011;7255;53.596;9.960;2023-06-14T02:07:40;3.00;;;2.55;;
14342;SDS011;7255;53.596;9.960;2023-06-14T02:10:06;3.75;;;2.65;;
14342;SDS011;7255;53.596;9.960;2023-06-14T02:12:33;4.03;;;3.08;;
14342;SDS011;7255;53.596;9.960;2023-06-14T02:15:01;3.17;;;2.35;;
14342;SDS011;7255;53.596;9.960;2023-06-14T02:17:27;4.90;;;2.60;;
14342;SDS011;7255;53.596;9.960;2023-06-14T02:19:53;5.03;;;2.50;;
14342;SDS011;7255;53.596;9.960;2023-06-14T02:22:20;4.45;;;2.75;;
14342;SDS011;7255;53.596;9.960;2023-06-14T02:24:47;2.17;;;1.95;;
14342;SDS011;7255;53.596;9.960;2023-06-14T02:27:13;4.57;;;2.65;;
14342;SDS011;7255;53.596;9.960;2023-06-14T02:29:39;3.97;;;2.67;;
14342;SDS011;7255;53.596;9.960;2023-06-14T02:32:09;3.08;;;2.55;;
14342;SDS011;7255;53.596;9.960;2023-06-14T02:34:35;3.50;;;2.90;;
14342;SDS011;7255;53.596;9.960;2023-06-14T02:37:02;3.92;;;2.30;;
14342;SDS011;7255;53.596;9.960;2023-06-14T02:39:28;3.72;;;2.60;;
14342;SDS011;7255;53.596;9.960;2023-06-14T02:41:55;3.75;;;2.80;;
14342;SDS011;7255;53.596;9.960;2023-06-14T02:44:23;2.60;;;2.40;;
14342;SDS011;7255;53.596;9.960;2023-06-14T02:46:50;4.00;;;2.50;;
14342;SDS011;7255;53.596;9.960;2023-06-14T02:49:18;4.07;;;2.67;;
14342;SDS011;7255;53.596;9.960;2023-06-14T02:51:44;4.53;;;2.80;;
14342;SDS011;7255;53.596;9.960;2023-06-14T02:54:10;2.80;;;2.60;;
14342;SDS011;7255;53.596;9.960;2023-06-14T02:56:37;5.15;;;2.53;;
14342;SDS011;7255;53.596;9.960;2023-06-14T02:59:03;3.12;;;2.70;;
14342;SDS011;7255;53.596;9.960;2023-06-14T03:01:29;4.53;;;2.62;;
14342;SDS011;7255;53.596;9.960;2023-06-14T03:03:59;3.40;;;2.30;;
14342;SDS011;7255;53.596;9.960;2023-06-14T03:06:27;3.70;;;2.60;;
14342;SDS011;7255;53.596;9.960;2023-06-14T03:08:54;3.72;;;2.80;;
14342;SDS011;7255;53.596;9.960;2023-06-14T03:11:22;4.12;;;2.42;;
14342;SDS011;7255;53.596;9.960;2023-06-14T03:13:49;4.50;;;2.50;;
14342;SDS011;7255;53.596;9.960;2023-06-14T03:16:16;6.40;;;2.97;;
14342;SDS011;7255;53.596;9.960;2023-06-14T03:18:44;4.40;;;2.30;;
14342;SDS011;7255;53.596;9.960;2023-06-14T03:21:10;4.22;;;2.40;;
14342;SDS011;7255;53.596;9.960;2023-06-14T03:23:38;4.05;;;2.60;;
14342;SDS011;7255;53.596;9.960;2023-06-14T03:26:04;4.22;;;3.10;;
14342;SDS011;7255;53.596;9.960;2023-06-14T03:28:31;3.58;;;2.50;;
14342;SDS011;7255;53.596;9.960;2023-06-14T03:30:57;3.67;;;2.60;;
14342;SDS011;7255;53.596;9.960;2023-06-14T03:33:23;3.30;;;2.50;;
14342;SDS011;7255;53.596;9.960;2023-06-14T03:35:51;3.87;;;2.90;;
14342;SDS011;7255;53.596;9.960;2023-06-14T03:38:17;3.08;;;2.28;;
14342;SDS011;7255;53.596;9.960;2023-06-14T03:40:45;2.95;;;2.33;;
14342;SDS011;7255;53.596;9.960;2023-06-14T03:43:11;3.42;;;2.70;;
14342;SDS011;7255;53.596;9.960;2023-06-14T03:45:38;3.78;;;2.83;;
14342;SDS011;7255;53.596;9.960;2023-06-14T03:48:05;5.40;;;2.50;;
14342;SDS011;7255;53.596;9.960;2023-06-14T03:50:33;3.35;;;2.80;;
14342;SDS011;7255;53.596;9.960;2023-06-14T03:53:03;5.60;;;2.90;;
14342;SDS011;7255;53.596;9.960;2023-06-14T03:55:29;4.25;;;2.83;;
14342;SDS011;7255;53.596;9.960;2023-06-14T03:57:57;4.78;;;2.70;;
14342;SDS011;7255;53.596;9.960;2023-06-14T04:00:23;4.47;;;2.65;;
14342;SDS011;7255;53.596;9.960;2023-06-14T04:02:50;4.45;;;2.92;;
14342;SDS011;7255;53.596;9.960;2023-06-14T04:05:16;2.58;;;2.37;;
14342;SDS011;7255;53.596;9.960;2023-06-14T04:07:44;6.87;;;3.05;;
14342;SDS011;7255;53.596;9.960;2023-06-14T04:10:10;3.47;;;2.75;;
14342;SDS011;7255;53.596;9.960;2023-06-14T04:12:37;2.83;;;2.50;;
14342;SDS011;7255;53.596;9.960;2023-06-14T04:15:05;3.33;;;2.40;;
14342;SDS011;7255;53.596;9.960;2023-06-14T04:17:33;6.28;;;3.30;;
14342;SDS011;7255;53.596;9.960;2023-06-14T04:19:59;3.17;;;2.40;;
14342;SDS011;7255;53.596;9.960;2023-06-14T04:22:26;2.90;;;2.60;;
14342;SDS011;7255;53.596;9.960;2023-06-14T04:24:53;2.78;;;2.55;;
14342;SDS011;7255;53.596;9.960;2023-06-14T04:27:21;3.37;;;3.08;;
14342;SDS011;7255;53.596;9.960;2023-06-14T04:29:50;4.15;;;2.83;;
14342;SDS011;7255;53.596;9.960;2023-06-14T04:32:22;3.92;;;2.65;;
14342;SDS011;7255;53.596;9.960;2023-06-14T04:34:51;3.47;;;2.90;;
14342;SDS011;7255;53.596;9.960;2023-06-14T04:37:18;3.92;;;2.55;;
14342;SDS011;7255;53.596;9.960;2023-06-14T04:39:45;4.40;;;3.15;;
14342;SDS011;7255;53.596;9.960;2023-06-14T04:42:12;3.17;;;2.37;;
14342;SDS011;7255;53.596;9.960;2023-06-14T04:44:39;5.45;;;3.15;;
14342;SDS011;7255;53.596;9.960;2023-06-14T04:47:06;3.55;;;2.80;;
14342;SDS011;7255;53.596;9.960;2023-06-14T04:49:34;4.12;;;3.00;;
14342;SDS011;7255;53.596;9.960;2023-06-14T04:52:00;4.35;;;2.92;;
14342;SDS011;7255;53.596;9.960;2023-06-14T04:54:27;3.33;;;2.60;;
14342;SDS011;7255;53.596;9.960;2023-06-14T04:56:56;4.90;;;2.83;;
14342;SDS011;7255;53.596;9.960;2023-06-14T04:59:22;5.05;;;2.83;;
14342;SDS011;7255;53.596;9.960;2023-06-14T05:01:49;4.05;;;2.70;;
14342;SDS011;7255;53.596;9.960;2023-06-14T05:04:16;4.70;;;2.78;;
14342;SDS011;7255;53.596;9.960;2023-06-14T05:06:44;6.95;;;3.00;;
14342;SDS011;7255;53.596;9.960;2023-06-14T05:09:13;5.45;;;3.28;;
14342;SDS011;7255;53.596;9.960;2023-06-14T05:11:40;3.00;;;2.60;;
14342;SDS011;7255;53.596;9.960;2023-06-14T05:14:07;3.40;;;2.67;;
14342;SDS011;7255;53.596;9.960;2023-06-14T05:16:33;3.12;;;2.60;;
14342;SDS011;7255;53.596;9.960;2023-06-14T05:19:00;4.62;;;2.92;;
14342;SDS011;7255;53.596;9.960;2023-06-14T05:21:26;4.97;;;2.95;;
14342;SDS011;7255;53.596;9.960;2023-06-14T05:23:54;2.80;;;2.22;;
14342;SDS011;7255;53.596;9.960;2023-06-14T05:26:20;3.53;;;2.67;;
14342;SDS011;7255;53.596;9.960;2023-06-14T05:28:48;3.67;;;2.92;;
14342;SDS011;7255;53.596;9.960;2023-06-14T05:31:15;4.82;;;2.65;;
14342;SDS011;7255;53.596;9.960;2023-06-14T05:33:42;2.87;;;2.33;;
14342;SDS011;7255;53.596;9.960;2023-06-14T05:36:08;4.45;;;2.70;;
14342;SDS011;7255;53.596;9.960;2023-06-14T05:38:34;4.50;;;2.78;;
14342;SDS011;7255;53.596;9.960;2023-06-14T05:41:02;3.28;;;2.75;;
14342;SDS011;7255;53.596;9.960;2023-06-14T05:43:28;2.97;;;2.67;;
14342;SDS011;7255;53.596;9.960;2023-06-14T05:45:55;4.87;;;2.37;;
14342;SDS011;7255;53.596;9.960;2023-06-14T05:48:21;4.35;;;2.33;;
14342;SDS011;7255;53.596;9.960;2023-06-14T05:50:47;3.65;;;2.37;;
14342;SDS011;7255;53.596;9.960;2023-06-14T05:53:13;4.70;;;2.53;;
14342;SDS011;7255;53.596;9.960;2023-06-14T05:55:40;2.72;;;2.22;;
14342;SDS011;7255;53.596;9.960;2023-06-14T05:58:08;3.33;;;2.55;;
14342;SDS011;7255;53.596;9.960;2023-06-14T06:00:35;4.47;;;2.60;;
14342;SDS011;7255;53.596;9.960;2023-06-14T06:03:02;4.37;;;2.53;;
14342;SDS011;7255;53.596;9.960;2023-06-14T06:05:28;3.47;;;2.33;;
14342;SDS011;7255;53.596;9.960;2023-06-14T06:07:54;3.78;;;2.33;;
14342;SDS011;7255;53.596;9.960;2023-06-14T06:10:21;3.40;;;2.37;;
14342;SDS011;7255;53.596;9.960;2023-06-14T06:12:47;2.40;;;2.20;;
14342;SDS011;7255;53.596;9.960;2023-06-14T06:15:15;5.15;;;2.42;;
14342;SDS011;7255;53.596;9.960;2023-06-14T06:17:41;6.00;;;2.60;;
14342;SDS011;7255;53.596;9.960;2023-06-14T06:20:08;4.62;;;2.50;;
14342;SDS011;7255;53.596;9.960;2023-06-14T06:22:36;3.83;;;2.33;;
14342;SDS011;7255;53.596;9.960;2023-06-14T06:25:03;2.33;;;2.10;;
14342;SDS011;7255;53.596;9.960;2023-06-14T06:27:31;5.22;;;2.12;;
14342;SDS011;7255;53.596;9.960;2023-06-14T06:29:57;2.90;;;2.05;;
14342;SDS011;7255;53.596;9.960;2023-06-14T06:32:25;2.03;;;1.83;;
14342;SDS011;7255;53.596;9.960;2023-06-14T06:34:52;2.70;;;1.85;;
14342;SDS011;7255;53.596;9.960;2023-06-14T06:37:19;2.95;;;1.92;;
14342;SDS011;7255;53.596;9.960;2023-06-14T06:39:45;3.37;;;2.08;;
14342;SDS011;7255;53.596;9.960;2023-06-14T06:42:12;5.57;;;1.92;;
14342;SDS011;7255;53.596;9.960;2023-06-14T06:44:39;2.58;;;2.08;;
14342;SDS011;7255;53.596;9.960;2023-06-14T06:47:05;2.42;;;1.83;;
14342;SDS011;7255;53.596;9.960;2023-06-14T06:49:33;2.97;;;2.17;;
14342;SDS011;7255;53.596;9.960;2023-06-14T06:52:00;3.30;;;1.75;;
14342;SDS011;7255;53.596;9.960;2023-06-14T06:54:27;2.03;;;1.60;;
14342;SDS011;7255;53.596;9.960;2023-06-14T06:56:54;4.72;;;2.05;;
14342;SDS011;7255;53.596;9.960;2023-06-14T06:59:20;2.00;;;1.80;;
14342;SDS011;7255;53.596;9.960;2023-06-14T07:01:47;2.62;;;2.10;;
14342;SDS011;7255;53.596;9.960;2023-06-14T07:04:14;2.50;;;2.00;;
14342;SDS011;7255;53.596;9.960;2023-06-14T07:06:42;1.98;;;1.67;;
14342;SDS011;7255;53.596;9.960;2023-06-14T07:09:09;3.12;;;1.98;;
14342;SDS011;7255;53.596;9.960;2023-06-14T07:11:37;4.18;;;2.22;;
14342;SDS011;7255;53.596;9.960;2023-06-14T07:14:04;4.97;;;1.87;;
14342;SDS011;7255;53.596;9.960;2023-06-14T07:16:30;3.05;;;2.00;;
14342;SDS011;7255;53.596;9.960;2023-06-14T07:18:56;2.15;;;1.80;;
14342;SDS011;7255;53.596;9.960;2023-06-14T07:21:23;2.62;;;1.83;;
14342;SDS011;7255;53.596;9.960;2023-06-14T07:23:52;4.00;;;1.90;;
14342;SDS011;7255;53.596;9.960;2023-06-14T07:26:18;3.08;;;1.50;;
14342;SDS011;7255;53.596;9.960;2023-06-14T07:28:45;1.58;;;1.33;;
14342;SDS011;7255;53.596;9.960;2023-06-14T07:31:12;2.83;;;1.67;;
14342;SDS011;7255;53.596;9.960;2023-06-14T07:33:39;2.97;;;1.80;;
14342;SDS011;7255;53.596;9.960;2023-06-14T07:36:06;3.22;;;1.80;;
14342;SDS011;7255;53.596;9.960;2023-06-14T07:38:33;1.90;;;1.70;;
14342;SDS011;7255;53.596;9.960;2023-06-14T07:41:01;4.37;;;1.80;;
14342;SDS011;7255;53.596;9.960;2023-06-14T07:43:27;3.05;;;1.70;;
14342;SDS011;7255;53.596;9.960;2023-06-14T07:45:53;2.55;;;2.00;;
14342;SDS011;7255;53.596;9.960;2023-06-14T07:48:20;2.42;;;1.85;;
14342;SDS011;7255;53.596;9.960;2023-06-14T07:50:47;2.22;;;1.95;;
14342;SDS011;7255;53.596;9.960;2023-06-14T07:53:13;3.35;;;1.73;;
14342;SDS011;7255;53.596;9.960;2023-06-14T07:55:39;4.22;;;1.65;;
14342;SDS011;7255;53.596;9.960;2023-06-14T07:58:08;4.10;;;2.17;;
14342;SDS011;7255;53.596;9.960;2023-06-14T08:00:35;2.35;;;2.00;;
14342;SDS011;7255;53.596;9.960;2023-06-14T08:03:02;2.17;;;1.90;;
14342;SDS011;7255;53.596;9.960;2023-06-14T08:05:29;3.20;;;2.10;;
14342;SDS011;7255;53.596;9.960;2023-06-14T08:07:55;1.85;;;1.67;;
14342;SDS011;7255;53.596;9.960;2023-06-14T08:10:22;1.90;;;1.73;;
14342;SDS011;7255;53.596;9.960;2023-06-14T08:12:48;2.50;;;1.70;;
14342;SDS011;7255;53.596;9.960;2023-06-14T08:15:17;1.65;;;1.50;;
14342;SDS011;7255;53.596;9.960;2023-06-14T08:17:43;1.95;;;1.73;;
14342;SDS011;7255;53.596;9.960;2023-06-14T08:20:10;3.42;;;1.98;;
14342;SDS011;7255;53.596;9.960;2023-06-14T08:22:38;2.83;;;1.65;;
14342;SDS011;7255;53.596;9.960;2023-06-14T08:25:07;4.30;;;2.08;;
14342;SDS011;7255;53.596;9.960;2023-06-14T08:27:34;2.17;;;1.90;;
14342;SDS011;7255;53.596;9.960;2023-06-14T08:30:00;2.62;;;1.87;;
14342;SDS011;7255;53.596;9.960;2023-06-14T08:32:29;4.45;;;2.30;;
14342;SDS011;7255;53.596;9.960;2023-06-14T08:34:55;2.37;;;1.62;;
14342;SDS011;7255;53.596;9.960;2023-06-14T08:37:21;4.53;;;2.22;;
14342;SDS011;7255;53.596;9.960;2023-06-14T08:39:48;1.60;;;1.50;;
14342;SDS011;7255;53.596;9.960;2023-06-14T08:42:14;2.95;;;1.80;;
14342;SDS011;7255;53.596;9.960;2023-06-14T08:44:42;3.58;;;2.10;;
14342;SDS011;7255;53.596;9.960;2023-06-14T08:47:08;2.10;;;1.90;;
14342;SDS011;7255;53.596;9.960;2023-06-14T08:49:37;2.22;;;1.83;;
14342;SDS011;7255;53.596;9.960;2023-06-14T08:52:05;1.75;;;1.65;;
14342;SDS011;7255;53.596;9.960;2023-06-14T08:54:35;2.83;;;2.12;;
14342;SDS011;7255;53.596;9.960;2023-06-14T08:57:08;5.68;;;1.80;;
14342;SDS011;7255;53.596;9.960;2023-06-14T08:59:37;3.28;;;2.30;;
14342;SDS011;7255;53.596;9.960;2023-06-14T09:02:11;3.55;;;2.00;;
14342;SDS011;7255;53.596;9.960;2023-06-14T09:04:39;3.53;;;1.80;;
14342;SDS011;7255;53.596;9.960;2023-06-14T09:07:06;3.92;;;1.90;;
14342;SDS011;7255;53.596;9.960;2023-06-14T09:09:32;3.87;;;1.73;;
14342;SDS011;7255;53.596;9.960;2023-06-14T09:12:04;2.10;;;1.87;;
14342;SDS011;7255;53.596;9.960;2023-06-14T09:14:35;2.62;;;1.95;;
14342;SDS011;7255;53.596;9.960;2023-06-14T09:17:04;3.15;;;2.10;;
14342;SDS011;7255;53.596;9.960;2023-06-14T09:19:31;2.22;;;2.03;;
14342;SDS011;7255;53.596;9.960;2023-06-14T09:21:59;4.25;;;2.30;;
14342;SDS011;7255;53.596;9.960;2023-06-14T09:24:25;2.60;;;1.83;;
14342;SDS011;7255;53.596;9.960;2023-06-14T09:26:52;2.92;;;1.75;;
14342;SDS011;7255;53.596;9.960;2023-06-14T09:29:19;2.03;;;1.87;;
14342;SDS011;7255;53.596;9.960;2023-06-14T09:31:45;4.28;;;2.12;;
14342;SDS011;7255;53.596;9.960;2023-06-14T09:34:12;2.70;;;2.28;;
14342;SDS011;7255;53.596;9.960;2023-06-14T09:36:39;4.18;;;1.87;;
14342;SDS011;7255;53.596;9.960;2023-06-14T09:39:09;4.47;;;2.03;;
14342;SDS011;7255;53.596;9.960;2023-06-14T09:41:35;2.67;;;2.10;;
14342;SDS011;7255;53.596;9.960;2023-06-14T09:44:03;2.85;;;2.47;;
14342;SDS011;7255;53.596;9.960;2023-06-14T09:46:32;7.20;;;2.15;;
14342;SDS011;7255;53.596;9.960;2023-06-14T09:48:59;2.92;;;2.37;;
14342;SDS011;7255;53.596;9.960;2023-06-14T09:51:26;3.97;;;2.20;;
14342;SDS011;7255;53.596;9.960;2023-06-14T09:53:55;2.03;;;1.62;;
14342;SDS011;7255;53.596;9.960;2023-06-14T09:56:27;3.28;;;1.87;;
14342;SDS011;7255;53.596;9.960;2023-06-14T09:58:55;3.22;;;1.98;;
14342;SDS011;7255;53.596;9.960;2023-06-14T10:01:23;2.97;;;2.17;;
14342;SDS011;7255;53.596;9.960;2023-06-14T10:03:52;2.45;;;2.03;;
14342;SDS011;7255;53.596;9.960;2023-06-14T10:06:22;4.37;;;1.98;;
14342;SDS011;7255;53.596;9.960;2023-06-14T10:08:50;2.45;;;2.12;;
14342;SDS011;7255;53.596;9.960;2023-06-14T10:11:18;2.08;;;1.87;;
14342;SDS011;7255;53.596;9.960;2023-06-14T10:13:46;5.10;;;2.08;;
14342;SDS011;7255;53.596;9.960;2023-06-14T10:16:15;2.55;;;2.00;;
14342;SDS011;7255;53.596;9.960;2023-06-14T10:18:48;3.10;;;2.00;;
14342;SDS011;7255;53.596;9.960;2023-06-14T10:21:18;3.58;;;2.03;;
14342;SDS011;7255;53.596;9.960;2023-06-14T10:23:52;2.20;;;2.00;;
14342;SDS011;7255;53.596;9.960;2023-06-14T10:26:19;2.78;;;2.10;;
14342;SDS011;7255;53.596;9.960;2023-06-14T10:28:56;2.83;;;2.05;;
14342;SDS011;7255;53.596;9.960;2023-06-14T10:31:39;3.10;;;2.35;;
14342;SDS011;7255;53.596;9.960;2023-06-14T10:34:07;2.87;;;1.95;;
14342;SDS011;7255;53.596;9.960;2023-06-14T10:36:34;3.17;;;2.30;;
14342;SDS011;7255;53.596;9.960;2023-06-14T10:39:01;3.12;;;2.10;;
14342;SDS011;7255;53.596;9.960;2023-06-14T10:41:31;5.53;;;2.20;;
14342;SDS011;7255;53.596;9.960;2023-06-14T10:47:00;6.47;;;2.10;;
14342;SDS011;7255;53.596;9.960;2023-06-14T10:49:36;3.45;;;2.37;;
14342;SDS011;7255;53.596;9.960;2023-06-14T10:52:07;2.40;;;2.20;;
14342;SDS011;7255;53.596;9.960;2023-06-14T10:54:55;2.67;;;2.03;;
14342;SDS011;7255;53.596;9.960;2023-06-14T10:57:34;4.80;;;2.42;;
14342;SDS011;7255;53.596;9.960;2023-06-14T11:00:03;2.80;;;1.92;;
14342;SDS011;7255;53.596;9.960;2023-06-14T11:03:02;2.12;;;1.80;;
14342;SDS011;7255;53.596;9.960;2023-06-14T11:05:54;4.35;;;2.40;;
14342;SDS011;7255;53.596;9.960;2023-06-14T11:08:27;1.95;;;1.75;;
14342;SDS011;7255;53.596;9.960;2023-06-14T11:11:05;2.50;;;2.10;;
14342;SDS011;7255;53.596;9.960;2023-06-14T11:13:32;2.55;;;2.05;;
14342;SDS011;7255;53.596;9.960;2023-06-14T11:16:00;2.30;;;1.70;;
14342;SDS011;7255;53.596;9.960;2023-06-14T11:18:26;3.40;;;2.00;;
14342;SDS011;7255;53.596;9.960;2023-06-14T11:20:54;2.58;;;1.77;;
14342;SDS011;7255;53.596;9.960;2023-06-14T11:23:21;2.05;;;1.85;;
14342;SDS011;7255;53.596;9.960;2023-06-14T11:25:49;3.20;;;2.08;;
14342;SDS011;7255;53.596;9.960;2023-06-14T11:28:16;2.00;;;1.80;;
14342;SDS011;7255;53.596;9.960;2023-06-14T11:30:44;2.25;;;1.87;;
14342;SDS011;7255;53.596;9.960;2023-06-14T11:33:14;2.08;;;1.87;;
14342;SDS011;7255;53.596;9.960;2023-06-14T11:35:43;2.30;;;2.10;;
14342;SDS011;7255;53.596;9.960;2023-06-14T11:38:10;3.62;;;2.30;;
14342;SDS011;7255;53.596;9.960;2023-06-14T11:40:37;2.62;;;2.10;;
14342;SDS011;7255;53.596;9.960;2023-06-14T11:43:04;2.30;;;2.05;;
14342;SDS011;7255;53.596;9.960;2023-06-14T11:45:30;3.50;;;2.00;;
14342;SDS011;7255;53.596;9.960;2023-06-14T11:47:57;3.55;;;2.45;;
14342;SDS011;7255;53.596;9.960;2023-06-14T11:50:26;3.80;;;1.77;;
14342;SDS011;7255;53.596;9.960;2023-06-14T11:52:53;2.33;;;2.12;;
14342;SDS011;7255;53.596;9.960;2023-06-14T11:55:21;2.37;;;1.85;;
14342;SDS011;7255;53.596;9.960;2023-06-14T11:57:48;2.05;;;1.85;;
14342;SDS011;7255;53.596;9.960;2023-06-14T12:00:14;2.78;;;2.10;;
14342;SDS011;7255;53.596;9.960;2023-06-14T12:02:42;2.83;;;1.92;;
14342;SDS011;7255;53.596;9.960;2023-06-14T12:05:09;3.35;;;2.35;;
14342;SDS011;7255;53.596;9.960;2023-06-14T12:07:37;2.10;;;1.85;;
14342;SDS011;7255;53.596;9.960;2023-06-14T12:10:05;2.67;;;1.80;;
14342;SDS011;7255;53.596;9.960;2023-06-14T12:12:36;2.95;;;2.25;;
14342;SDS011;7255;53.596;9.960;2023-06-14T12:15:03;2.12;;;1.83;;
14342;SDS011;7255;53.596;9.960;2023-06-14T12:17:31;2.28;;;1.70;;
14342;SDS011;7255;53.596;9.960;2023-06-14T12:19:59;3.25;;;2.00;;
14342;SDS011;7255;53.596;9.960;2023-06-14T12:22:33;4.10;;;2.25;;
14342;SDS011;7255;53.596;9.960;2023-06-14T12:25:01;3.15;;;2.17;;
14342;SDS011;7255;53.596;9.960;2023-06-14T12:27:28;2.42;;;2.00;;
14342;SDS011;7255;53.596;9.960;2023-06-14T12:30:00;4.28;;;2.03;;
14342;SDS011;7255;53.596;9.960;2023-06-14T12:32:27;2.17;;;1.98;;
14342;SDS011;7255;53.596;9.960;2023-06-14T12:34:54;5.37;;;2.28;;
14342;SDS011;7255;53.596;9.960;2023-06-14T12:37:20;2.17;;;1.80;;
14342;SDS011;7255;53.596;9.960;2023-06-14T12:39:47;4.70;;;2.22;;
14342;SDS011;7255;53.596;9.960;2023-06-14T12:42:14;2.03;;;1.80;;
14342;SDS011;7255;53.596;9.960;2023-06-14T12:44:41;4.30;;;1.95;;
14342;SDS011;7255;53.596;9.960;2023-06-14T12:47:07;3.37;;;2.53;;
14342;SDS011;7255;53.596;9.960;2023-06-14T12:49:34;4.25;;;2.53;;
14342;SDS011;7255;53.596;9.960;2023-06-14T12:52:00;3.22;;;1.85;;
14342;SDS011;7255;53.596;9.960;2023-06-14T12:54:26;3.12;;;2.08;;
14342;SDS011;7255;53.596;9.960;2023-06-14T12:56:53;2.65;;;2.17;;
14342;SDS011;7255;53.596;9.960;2023-06-14T12:59:21;4.62;;;2.25;;
14342;SDS011;7255;53.596;9.960;2023-06-14T13:01:47;3.37;;;1.77;;
14342;SDS011;7255;53.596;9.960;2023-06-14T13:04:15;4.40;;;1.90;;
14342;SDS011;7255;53.596;9.960;2023-06-14T13:06:41;2.20;;;2.00;;
14342;SDS011;7255;53.596;9.960;2023-06-14T13:09:08;4.93;;;2.75;;
14342;SDS011;7255;53.596;9.960;2023-06-14T13:11:34;7.07;;;2.75;;
14342;SDS011;7255;53.596;9.960;2023-06-14T13:14:00;2.67;;;2.10;;
14342;SDS011;7255;53.596;9.960;2023-06-14T13:16:28;3.03;;;2.10;;
14342;SDS011;7255;53.596;9.960;2023-06-14T13:18:55;3.95;;;1.77;;
14342;SDS011;7255;53.596;9.960;2023-06-14T13:21:21;2.05;;;1.90;;
14342;SDS011;7255;53.596;9.960;2023-06-14T13:23:48;3.62;;;2.00;;
14342;SDS011;7255;53.596;9.960;2023-06-14T13:26:14;2.97;;;1.80;;
14342;SDS011;7255;53.596;9.960;2023-06-14T13:28:41;5.70;;;2.33;;
14342;SDS011;7255;53.596;9.960;2023-06-14T13:31:07;3.83;;;2.17;;
14342;SDS011;7255;53.596;9.960;2023-06-14T13:33:34;3.60;;;2.37;;
14342;SDS011;7255;53.596;9.960;2023-06-14T13:36:01;2.22;;;2.03;;
14342;SDS011;7255;53.596;9.960;2023-06-14T13:38:27;3.45;;;2.05;;
14342;SDS011;7255;53.596;9.960;2023-06-14T13:40:53;2.15;;;1.85;;
14342;SDS011;7255;53.596;9.960;2023-06-14T13:43:20;2.67;;;1.83;;
14342;SDS011;7255;53.596;9.960;2023-06-14T13:45:47;3.00;;;2.22;;
14342;SDS011;7255;53.596;9.960;2023-06-14T13:48:14;2.30;;;1.92;;
14342;SDS011;7255;53.596;9.960;2023-06-14T13:50:42;3.83;;;1.92;;
14342;SDS011;7255;53.596;9.960;2023-06-14T13:53:08;1.70;;;1.60;;
14342;SDS011;7255;53.596;9.960;2023-06-14T13:55:34;2.90;;;2.17;;
14342;SDS011;7255;53.596;9.960;2023-06-14T13:58:01;2.97;;;1.73;;
14342;SDS011;7255;53.596;9.960;2023-06-14T14:00:27;2.60;;;1.90;;
14342;SDS011;7255;53.596;9.960;2023-06-14T14:02:53;3.08;;;2.08;;
14342;SDS011;7255;53.596;9.960;2023-06-14T14:05:22;3.15;;;2.08;;
14342;SDS011;7255;53.596;9.960;2023-06-14T14:07:54;4.32;;;1.85;;
14342;SDS011;7255;53.596;9.960;2023-06-14T14:10:21;2.75;;;1.92;;
14342;SDS011;7255;53.596;9.960;2023-06-14T14:12:48;2.05;;;1.80;;
14342;SDS011;7255;53.596;9.960;2023-06-14T14:15:15;4.95;;;1.98;;
14342;SDS011;7255;53.596;9.960;2023-06-14T14:17:42;2.17;;;1.87;;
14342;SDS011;7255;53.596;9.960;2023-06-14T14:20:09;2.05;;;1.62;;
14342;SDS011;7255;53.596;9.960;2023-06-14T14:22:37;3.17;;;1.85;;
14342;SDS011;7255;53.596;9.960;2023-06-14T14:25:05;3.47;;;2.78;;
14342;SDS011;7255;53.596;9.960;2023-06-14T14:27:31;3.58;;;2.10;;
14342;SDS011;7255;53.596;9.960;2023-06-14T14:29:59;4.50;;;2.17;;
14342;SDS011;7255;53.596;9.960;2023-06-14T14:32:26;2.53;;;1.80;;
14342;SDS011;7255;53.596;9.960;2023-06-14T14:34:52;3.65;;;2.10;;
14342;SDS011;7255;53.596;9.960;2023-06-14T14:37:18;2.67;;;2.08;;
14342;SDS011;7255;53.596;9.960;2023-06-14T14:39:45;2.10;;;1.90;;
14342;SDS011;7255;53.596;9.960;2023-06-14T14:42:13;2.00;;;1.80;;
14342;SDS011;7255;53.596;9.960;2023-06-14T14:44:39;3.05;;;2.00;;
14342;SDS011;7255;53.596;9.960;2023-06-14T14:47:06;4.30;;;1.70;;
14342;SDS011;7255;53.596;9.960;2023-06-14T14:49:32;4.55;;;2.03;;
14342;SDS011;7255;53.596;9.960;2023-06-14T14:51:58;2.17;;;1.80;;
14342;SDS011;7255;53.596;9.960;2023-06-14T14:54:25;1.80;;;1.70;;
14342;SDS011;7255;53.596;9.960;2023-06-14T14:56:53;1.73;;;1.62;;
14342;SDS011;7255;53.596;9.960;2023-06-14T14:59:21;1.75;;;1.65;;
14342;SDS011;7255;53.596;9.960;2023-06-14T15:01:47;1.98;;;1.80;;
14342;SDS011;7255;53.596;9.960;2023-06-14T15:04:14;3.28;;;2.25;;
14342;SDS011;7255;53.596;9.960;2023-06-14T15:06:40;3.47;;;1.90;;